JLY1424 SBRJ-SBSP
Flight info
| Callsign | JLY1424 |
|---|---|
| Flight time | 0h 47m |
| Altitude | 34000 |
| Route | NAXOP UZ45 IBDAL |
| Aircraft | B737/M-SDE2E3FGHIRWXY/LB1 |
Departure
| Time | 2026-05-04 00:10 |
|---|---|
| Airport | Santos Dumont Airport (SBRJ) |
Arrival
| Time | 2026-05-04 00:57 |
|---|---|
| Airport | Congonhas–Deputado Freitas Nobre Airport (SBSP) |
| Time | Latitude | Longitude | Altitude | Speed | Heading |
|---|---|---|---|---|---|
| 2026-05-03 23:47 | -22.91282 | -43.16577 | 21 ft | 0 kts | 269° |
| 2026-05-03 23:59 | -22.91282 | -43.16570 | 21 ft | 4 kts | 268° |
| 2026-05-03 23:59 | -22.91278 | -43.16541 | 23 ft | 4 kts | 250° |
| 2026-05-03 23:59 | -22.91265 | -43.16517 | 22 ft | 4 kts | 215° |
| 2026-05-04 00:00 | -22.91249 | -43.16511 | 21 ft | 1 kts | 176° |
| 2026-05-04 00:00 | -22.91246 | -43.16511 | 21 ft | 0 kts | 176° |
| 2026-05-04 00:04 | -22.91262 | -43.16510 | 25 ft | 6 kts | 176° |
| 2026-05-04 00:04 | -22.91325 | -43.16506 | 21 ft | 12 kts | 177° |
| 2026-05-04 00:04 | -22.91408 | -43.16490 | 21 ft | 12 kts | 152° |
| 2026-05-04 00:04 | -22.91466 | -43.16437 | 21 ft | 5 kts | 136° |
| 2026-05-04 00:05 | -22.91469 | -43.16434 | 21 ft | 0 kts | 136° |
| 2026-05-04 00:07 | -22.91474 | -43.16428 | 21 ft | 2 kts | 136° |
| 2026-05-04 00:07 | -22.91494 | -43.16408 | 20 ft | 5 kts | 136° |
| 2026-05-04 00:08 | -22.91529 | -43.16371 | 19 ft | 9 kts | 136° |
| 2026-05-04 00:08 | -22.91582 | -43.16321 | 19 ft | 11 kts | 141° |
| 2026-05-04 00:08 | -22.91645 | -43.16266 | 19 ft | 6 kts | 128° |
| 2026-05-04 00:08 | -22.91623 | -43.16246 | 21 ft | 6 kts | 5° |
| 2026-05-04 00:09 | -22.91618 | -43.16246 | 21 ft | 0 kts | 359° |
| 2026-05-04 00:10 | -22.91358 | -43.16263 | 21 ft | 86 kts | 356° |
| 2026-05-04 00:10 | -22.90452 | -43.16315 | 49 ft | 169 kts | 357° |
| 2026-05-04 00:10 | -22.89205 | -43.16369 | 952 ft | 176 kts | 358° |
| 2026-05-04 00:10 | -22.88049 | -43.15998 | 2080 ft | 180 kts | 41° |
| 2026-05-04 00:11 | -22.87375 | -43.14731 | 2462 ft | 216 kts | 84° |
| 2026-05-04 00:11 | -22.87614 | -43.13070 | 3035 ft | 231 kts | 109° |
| 2026-05-04 00:11 | -22.87949 | -43.11362 | 4111 ft | 230 kts | 101° |
| 2026-05-04 00:11 | -22.88160 | -43.09586 | 4931 ft | 247 kts | 98° |
| 2026-05-04 00:12 | -22.88335 | -43.07687 | 5835 ft | 261 kts | 98° |
| 2026-05-04 00:12 | -22.88958 | -43.05816 | 6702 ft | 271 kts | 129° |
| 2026-05-04 00:12 | -22.90474 | -43.04591 | 7547 ft | 278 kts | 156° |
| 2026-05-04 00:12 | -22.92307 | -43.03894 | 8259 ft | 283 kts | 172° |
| 2026-05-04 00:13 | -22.94264 | -43.04028 | 9340 ft | 285 kts | 198° |
| 2026-05-04 00:13 | -22.96004 | -43.05051 | 9957 ft | 286 kts | 225° |
| 2026-05-04 00:13 | -22.97188 | -43.06780 | 10306 ft | 286 kts | 240° |
| 2026-05-04 00:13 | -22.98161 | -43.08644 | 10982 ft | 286 kts | 242° |
| 2026-05-04 00:14 | -22.99107 | -43.10556 | 12034 ft | 288 kts | 242° |
| 2026-05-04 00:14 | -23.00059 | -43.12497 | 12997 ft | 294 kts | 242° |
| 2026-05-04 00:14 | -23.01028 | -43.14466 | 13969 ft | 297 kts | 241° |
| 2026-05-04 00:14 | -23.02012 | -43.16456 | 14839 ft | 301 kts | 242° |
| 2026-05-04 00:15 | -23.03005 | -43.18454 | 15828 ft | 300 kts | 242° |
| 2026-05-04 00:15 | -23.03994 | -43.20437 | 16856 ft | 298 kts | 242° |
| 2026-05-04 00:15 | -23.04984 | -43.22416 | 17820 ft | 299 kts | 243° |
| 2026-05-04 00:15 | -23.05981 | -43.24405 | 18714 ft | 300 kts | 243° |
| 2026-05-04 00:16 | -23.06982 | -43.26399 | 19499 ft | 302 kts | 243° |
| 2026-05-04 00:16 | -23.07988 | -43.28403 | 20305 ft | 304 kts | 244° |
| 2026-05-04 00:16 | -23.09008 | -43.30434 | 21111 ft | 306 kts | 244° |
| 2026-05-04 00:16 | -23.10031 | -43.32473 | 21919 ft | 309 kts | 244° |
| 2026-05-04 00:17 | -23.11063 | -43.34528 | 22738 ft | 311 kts | 244° |
| 2026-05-04 00:17 | -23.12096 | -43.36585 | 23673 ft | 309 kts | 244° |
| 2026-05-04 00:17 | -23.13126 | -43.38637 | 24375 ft | 311 kts | 244° |
| 2026-05-04 00:17 | -23.14167 | -43.40711 | 24991 ft | 315 kts | 244° |
| 2026-05-04 00:18 | -23.15219 | -43.42806 | 25607 ft | 318 kts | 245° |
| 2026-05-04 00:18 | -23.16286 | -43.44932 | 26250 ft | 321 kts | 245° |
| 2026-05-04 00:18 | -23.17358 | -43.47069 | 26869 ft | 324 kts | 245° |
| 2026-05-04 00:18 | -23.18425 | -43.49199 | 27487 ft | 327 kts | 246° |
| 2026-05-04 00:19 | -23.19532 | -43.51409 | 28094 ft | 330 kts | 246° |
| 2026-05-04 00:19 | -23.20635 | -43.53611 | 28694 ft | 333 kts | 246° |
| 2026-05-04 00:19 | -23.21734 | -43.55806 | 29295 ft | 336 kts | 246° |
| 2026-05-04 00:19 | -23.22872 | -43.58080 | 29887 ft | 340 kts | 247° |
| 2026-05-04 00:20 | -23.23991 | -43.60318 | 30422 ft | 343 kts | 247° |
| 2026-05-04 00:20 | -23.25135 | -43.62609 | 30911 ft | 346 kts | 247° |
| 2026-05-04 00:20 | -23.26283 | -43.64908 | 31405 ft | 348 kts | 247° |
| 2026-05-04 00:20 | -23.27441 | -43.67230 | 31832 ft | 351 kts | 247° |
| 2026-05-04 00:21 | -23.28611 | -43.69575 | 32241 ft | 355 kts | 247° |
| 2026-05-04 00:21 | -23.29791 | -43.71944 | 32658 ft | 358 kts | 248° |
| 2026-05-04 00:21 | -23.30983 | -43.74334 | 33069 ft | 360 kts | 248° |
| 2026-05-04 00:21 | -23.32180 | -43.76738 | 33456 ft | 363 kts | 247° |
| 2026-05-04 00:22 | -23.33388 | -43.79164 | 33828 ft | 366 kts | 248° |
| 2026-05-04 00:22 | -23.34606 | -43.81611 | 34164 ft | 370 kts | 248° |
| 2026-05-04 00:22 | -23.37074 | -43.86588 | 34152 ft | 374 kts | 248° |
| 2026-05-04 00:23 | -23.39517 | -43.91518 | 34195 ft | 367 kts | 248° |
| 2026-05-04 00:23 | -23.41942 | -43.96393 | 34193 ft | 366 kts | 248° |
| 2026-05-04 00:24 | -23.44357 | -44.01259 | 34195 ft | 366 kts | 248° |
| 2026-05-04 00:24 | -23.46759 | -44.06110 | 34188 ft | 366 kts | 248° |
| 2026-05-04 00:25 | -23.49177 | -44.10997 | 34195 ft | 367 kts | 248° |
| 2026-05-04 00:25 | -23.51467 | -44.15952 | 34192 ft | 364 kts | 254° |
| 2026-05-04 00:26 | -23.52833 | -44.21275 | 34206 ft | 373 kts | 260° |
| 2026-05-04 00:26 | -23.54089 | -44.26889 | 34209 ft | 389 kts | 260° |
| 2026-05-04 00:27 | -23.55401 | -44.32708 | 34205 ft | 402 kts | 259° |
| 2026-05-04 00:27 | -23.56764 | -44.38694 | 34206 ft | 411 kts | 259° |
| 2026-05-04 00:28 | -23.58146 | -44.44749 | 34189 ft | 412 kts | 259° |
| 2026-05-04 00:28 | -23.59528 | -44.50808 | 34197 ft | 412 kts | 259° |
| 2026-05-04 00:29 | -23.60905 | -44.56868 | 34216 ft | 411 kts | 259° |
| 2026-05-04 00:29 | -23.62278 | -44.62920 | 34200 ft | 411 kts | 259° |
| 2026-05-04 00:30 | -23.63637 | -44.68925 | 34200 ft | 410 kts | 259° |
| 2026-05-04 00:30 | -23.65009 | -44.75001 | 34201 ft | 410 kts | 259° |
| 2026-05-04 00:31 | -23.66361 | -44.80999 | 34200 ft | 410 kts | 259° |
| 2026-05-04 00:31 | -23.67719 | -44.87034 | 34208 ft | 410 kts | 259° |
| 2026-05-04 00:32 | -23.69074 | -44.93069 | 34209 ft | 410 kts | 259° |
| 2026-05-04 00:32 | -23.70429 | -44.99112 | 34219 ft | 409 kts | 259° |
| 2026-05-04 00:33 | -23.72449 | -45.08147 | 34182 ft | 408 kts | 259° |
| 2026-05-04 00:33 | -23.73127 | -45.11190 | 33385 ft | 414 kts | 259° |
| 2026-05-04 00:34 | -23.73796 | -45.14187 | 32658 ft | 400 kts | 259° |
| 2026-05-04 00:34 | -23.74452 | -45.17124 | 31778 ft | 398 kts | 259° |
| 2026-05-04 00:34 | -23.75100 | -45.20041 | 31164 ft | 393 kts | 259° |
| 2026-05-04 00:34 | -23.75743 | -45.22931 | 30505 ft | 389 kts | 259° |
| 2026-05-04 00:35 | -23.76377 | -45.25781 | 29798 ft | 384 kts | 259° |
| 2026-05-04 00:35 | -23.77005 | -45.28603 | 29085 ft | 379 kts | 259° |
| 2026-05-04 00:35 | -23.77623 | -45.31380 | 28440 ft | 373 kts | 258° |
| 2026-05-04 00:35 | -23.78231 | -45.34112 | 27793 ft | 369 kts | 258° |
| 2026-05-04 00:36 | -23.78825 | -45.36787 | 27155 ft | 366 kts | 258° |
| 2026-05-04 00:36 | -23.79420 | -45.39471 | 26517 ft | 362 kts | 258° |
| 2026-05-04 00:36 | -23.79877 | -45.42149 | 26069 ft | 354 kts | 264° |
| 2026-05-04 00:36 | -23.80012 | -45.43949 | 25818 ft | 351 kts | 266° |
| 2026-05-04 00:37 | -23.80141 | -45.46620 | 25493 ft | 356 kts | 266° |
| 2026-05-04 00:37 | -23.80285 | -45.50249 | 25024 ft | 364 kts | 266° |
| 2026-05-04 00:37 | -23.80360 | -45.52115 | 24772 ft | 364 kts | 266° |
| 2026-05-04 00:37 | -23.80478 | -45.54859 | 24427 ft | 361 kts | 265° |
| 2026-05-04 00:38 | -23.80604 | -45.57588 | 24076 ft | 358 kts | 265° |
| 2026-05-04 00:38 | -23.80734 | -45.60293 | 23717 ft | 356 kts | 265° |
| 2026-05-04 00:38 | -23.80867 | -45.62984 | 23333 ft | 354 kts | 265° |
| 2026-05-04 00:38 | -23.81001 | -45.65659 | 22971 ft | 352 kts | 265° |
| 2026-05-04 00:39 | -23.81136 | -45.68323 | 22620 ft | 351 kts | 265° |
| 2026-05-04 00:39 | -23.81270 | -45.70987 | 22279 ft | 351 kts | 265° |
| 2026-05-04 00:39 | -23.81403 | -45.73621 | 21938 ft | 352 kts | 265° |
| 2026-05-04 00:39 | -23.81540 | -45.76329 | 21602 ft | 354 kts | 265° |
| 2026-05-04 00:40 | -23.81674 | -45.79016 | 21263 ft | 355 kts | 265° |
| 2026-05-04 00:40 | -23.81809 | -45.81711 | 20921 ft | 356 kts | 265° |
| 2026-05-04 00:40 | -23.81943 | -45.84418 | 20583 ft | 357 kts | 265° |
| 2026-05-04 00:40 | -23.82078 | -45.87120 | 20253 ft | 371 kts | 266° |
| 2026-05-04 00:41 | -23.82223 | -45.90031 | 19867 ft | 393 kts | 266° |
| 2026-05-04 00:41 | -23.82371 | -45.93040 | 19488 ft | 398 kts | 266° |
| 2026-05-04 00:41 | -23.82517 | -45.96047 | 19093 ft | 396 kts | 266° |
| 2026-05-04 00:41 | -23.82663 | -45.99045 | 18703 ft | 395 kts | 266° |
| 2026-05-04 00:42 | -23.82808 | -46.02045 | 18301 ft | 395 kts | 266° |
| 2026-05-04 00:42 | -23.82952 | -46.05043 | 17891 ft | 395 kts | 266° |
| 2026-05-04 00:42 | -23.83096 | -46.08031 | 17485 ft | 392 kts | 266° |
| 2026-05-04 00:42 | -23.83237 | -46.10985 | 17108 ft | 388 kts | 266° |
| 2026-05-04 00:43 | -23.83378 | -46.13931 | 16742 ft | 388 kts | 266° |
| 2026-05-04 00:43 | -23.83519 | -46.16876 | 16368 ft | 388 kts | 266° |
| 2026-05-04 00:43 | -23.83659 | -46.19829 | 15994 ft | 389 kts | 266° |
| 2026-05-04 00:43 | -23.83799 | -46.22770 | 15608 ft | 388 kts | 266° |
| 2026-05-04 00:44 | -23.83939 | -46.25715 | 15260 ft | 388 kts | 266° |
| 2026-05-04 00:44 | -23.84078 | -46.28663 | 14884 ft | 389 kts | 266° |
| 2026-05-04 00:44 | -23.84218 | -46.31612 | 14503 ft | 389 kts | 266° |
| 2026-05-04 00:44 | -23.84356 | -46.34553 | 14127 ft | 388 kts | 266° |
| 2026-05-04 00:45 | -23.84494 | -46.37491 | 13736 ft | 386 kts | 266° |
| 2026-05-04 00:45 | -23.84630 | -46.40408 | 13332 ft | 384 kts | 266° |
| 2026-05-04 00:45 | -23.84765 | -46.43316 | 12934 ft | 380 kts | 266° |
| 2026-05-04 00:45 | -23.84897 | -46.46166 | 12557 ft | 368 kts | 266° |
| 2026-05-04 00:46 | -23.85023 | -46.48902 | 12208 ft | 353 kts | 266° |
| 2026-05-04 00:46 | -23.85143 | -46.51528 | 11880 ft | 340 kts | 267° |
| 2026-05-04 00:46 | -23.85260 | -46.54066 | 11564 ft | 329 kts | 267° |
| 2026-05-04 00:46 | -23.85372 | -46.56526 | 11262 ft | 320 kts | 267° |
| 2026-05-04 00:47 | -23.85480 | -46.58937 | 10971 ft | 317 kts | 268° |
| 2026-05-04 00:47 | -23.85183 | -46.61301 | 10660 ft | 315 kts | 290° |
| 2026-05-04 00:47 | -23.84119 | -46.63307 | 10365 ft | 298 kts | 308° |
| 2026-05-04 00:47 | -23.82608 | -46.64782 | 10083 ft | 287 kts | 323° |
| 2026-05-04 00:48 | -23.80974 | -46.65935 | 9798 ft | 281 kts | 326° |
| 2026-05-04 00:48 | -23.79329 | -46.67041 | 9515 ft | 274 kts | 326° |
| 2026-05-04 00:48 | -23.77716 | -46.68134 | 9344 ft | 274 kts | 327° |
| 2026-05-04 00:48 | -23.76098 | -46.69237 | 9310 ft | 275 kts | 326° |
| 2026-05-04 00:49 | -23.74476 | -46.70357 | 9290 ft | 275 kts | 326° |
| 2026-05-04 00:49 | -23.72867 | -46.71471 | 9287 ft | 273 kts | 326° |
| 2026-05-04 00:49 | -23.71259 | -46.72586 | 9143 ft | 277 kts | 326° |
| 2026-05-04 00:49 | -23.69629 | -46.73716 | 8804 ft | 276 kts | 326° |
| 2026-05-04 00:50 | -23.68015 | -46.74836 | 8507 ft | 273 kts | 326° |
| 2026-05-04 00:50 | -23.66390 | -46.75963 | 7993 ft | 280 kts | 327° |
| 2026-05-04 00:50 | -23.64755 | -46.77095 | 7622 ft | 275 kts | 327° |
| 2026-05-04 00:50 | -23.63175 | -46.78189 | 7308 ft | 264 kts | 327° |
| 2026-05-04 00:51 | -23.61658 | -46.79240 | 7031 ft | 253 kts | 328° |
| 2026-05-04 00:51 | -23.60199 | -46.80250 | 6752 ft | 244 kts | 328° |
| 2026-05-04 00:51 | -23.58791 | -46.81210 | 6472 ft | 234 kts | 334° |
| 2026-05-04 00:51 | -23.57271 | -46.81579 | 6231 ft | 220 kts | 9° |
| 2026-05-04 00:52 | -23.55884 | -46.81031 | 6037 ft | 206 kts | 37° |
| 2026-05-04 00:52 | -23.54880 | -46.80005 | 5803 ft | 196 kts | 58° |
| 2026-05-04 00:52 | -23.54146 | -46.78776 | 5602 ft | 192 kts | 61° |
| 2026-05-04 00:52 | -23.53436 | -46.77560 | 5371 ft | 186 kts | 61° |
| 2026-05-04 00:53 | -23.52761 | -46.76407 | 5148 ft | 175 kts | 62° |
| 2026-05-04 00:53 | -23.52128 | -46.75312 | 4957 ft | 166 kts | 67° |
| 2026-05-04 00:53 | -23.51905 | -46.74156 | 4884 ft | 155 kts | 102° |
| 2026-05-04 00:53 | -23.52417 | -46.73148 | 4801 ft | 153 kts | 134° |
| 2026-05-04 00:54 | -23.53183 | -46.72393 | 4578 ft | 143 kts | 142° |
| 2026-05-04 00:54 | -23.53919 | -46.71761 | 4420 ft | 126 kts | 143° |
| 2026-05-04 00:54 | -23.54626 | -46.71226 | 4259 ft | 123 kts | 146° |
| 2026-05-04 00:54 | -23.55350 | -46.70713 | 4102 ft | 125 kts | 146° |
| 2026-05-04 00:55 | -23.56082 | -46.70203 | 3941 ft | 124 kts | 147° |
| 2026-05-04 00:55 | -23.56808 | -46.69700 | 3840 ft | 124 kts | 147° |
| 2026-05-04 00:55 | -23.57535 | -46.69197 | 3678 ft | 124 kts | 147° |
| 2026-05-04 00:55 | -23.58265 | -46.68691 | 3506 ft | 123 kts | 147° |
| 2026-05-04 00:56 | -23.58987 | -46.68202 | 3327 ft | 122 kts | 148° |
| 2026-05-04 00:56 | -23.59714 | -46.67715 | 3184 ft | 124 kts | 147° |
| 2026-05-04 00:56 | -23.60439 | -46.67196 | 3044 ft | 124 kts | 146° |
| 2026-05-04 00:56 | -23.61178 | -46.66691 | 2856 ft | 126 kts | 148° |
| 2026-05-04 00:57 | -23.61900 | -46.66180 | 2673 ft | 121 kts | 147° |
| 2026-05-04 00:57 | -23.62560 | -46.65721 | 2603 ft | 79 kts | 147° |
| 2026-05-04 00:57 | -23.62798 | -46.65556 | 2607 ft | 27 kts | 147° |
| 2026-05-04 00:57 | -23.62910 | -46.65518 | 2606 ft | 14 kts | 203° |
| 2026-05-04 00:58 | -23.62909 | -46.65587 | 2602 ft | 6 kts | 324° |
| 2026-05-04 00:58 | -23.62872 | -46.65612 | 2602 ft | 6 kts | 328° |
| 2026-05-04 00:58 | -23.62836 | -46.65637 | 2602 ft | 6 kts | 328° |
| 2026-05-04 00:58 | -23.62801 | -46.65661 | 2602 ft | 6 kts | 327° |
| 2026-05-04 00:59 | -23.62762 | -46.65688 | 2601 ft | 8 kts | 328° |
| 2026-05-04 00:59 | -23.62709 | -46.65725 | 2601 ft | 10 kts | 326° |
| 2026-05-04 00:59 | -23.62681 | -46.65761 | 2600 ft | 6 kts | 265° |
| 2026-05-04 00:59 | -23.62706 | -46.65803 | 2600 ft | 7 kts | 237° |
| 2026-05-04 01:00 | -23.62719 | -46.65824 | 2600 ft | 0 kts | 237° |